createdAt,value
2018-10-11T00:02:05.780Z,13.53
2018-10-11T00:04:33.801Z,13.44
2018-10-11T00:07:01.750Z,13.38
2018-10-11T00:09:29.716Z,13.32
2018-10-11T00:11:57.670Z,12.99
2018-10-11T00:14:25.658Z,12.84
2018-10-11T00:16:53.665Z,12.67
2018-10-11T00:19:21.736Z,12.65
2018-10-11T00:21:49.692Z,12.77
2018-10-11T00:24:17.736Z,12.64
2018-10-11T00:26:45.684Z,12.74
2018-10-11T00:29:13.942Z,12.91
2018-10-11T00:31:41.855Z,12.89
2018-10-11T00:34:09.990Z,12.76
2018-10-11T00:36:37.969Z,12.75
2018-10-11T00:39:07.272Z,12.80
2018-10-11T00:41:35.399Z,12.92
2018-10-11T00:44:03.557Z,13.06
2018-10-11T00:46:31.517Z,13.09
2018-10-11T00:48:59.464Z,13.07
2018-10-11T00:51:27.399Z,13.12
2018-10-11T00:53:55.577Z,13.19
2018-10-11T00:56:23.536Z,13.15
2018-10-11T00:58:51.560Z,12.96
2018-10-11T01:01:19.451Z,12.75
2018-10-11T01:03:47.399Z,12.41
2018-10-11T01:06:15.347Z,12.57
2018-10-11T01:08:43.305Z,12.75
2018-10-11T01:11:11.247Z,12.82
2018-10-11T01:13:39.636Z,13.03
2018-10-11T01:16:07.563Z,13.02
2018-10-11T01:18:35.537Z,12.98
2018-10-11T01:21:03.518Z,13.02
2018-10-11T01:23:31.441Z,13.00
2018-10-11T01:25:59.467Z,12.95
2018-10-11T01:28:27.395Z,12.69
2018-10-11T01:31:01.042Z,12.82
2018-10-11T01:33:28.990Z,12.84
2018-10-11T01:35:56.965Z,12.81
2018-10-11T01:38:24.941Z,12.86
2018-10-11T01:40:52.913Z,12.82
2018-10-11T01:43:20.833Z,12.82
2018-10-11T01:45:48.855Z,12.79
2018-10-11T01:48:16.858Z,12.64
2018-10-11T01:50:44.833Z,12.33
2018-10-11T01:53:12.795Z,12.12
2018-10-11T01:55:40.761Z,12.14
2018-10-11T01:58:08.672Z,12.33
2018-10-11T02:00:36.919Z,12.32
2018-10-11T02:03:04.854Z,12.47
2018-10-11T02:05:32.842Z,12.53
2018-10-11T02:08:00.818Z,12.43
2018-10-11T02:10:29.204Z,12.34
2018-10-11T02:12:58.290Z,12.17
2018-10-11T02:15:27.217Z,11.95
2018-10-11T02:17:55.335Z,11.69
2018-10-11T02:20:23.360Z,11.66
2018-10-11T02:22:51.274Z,11.19
2018-10-11T02:25:19.256Z,11.12
2018-10-11T02:27:47.221Z,10.86
2018-10-11T02:30:15.221Z,10.73
2018-10-11T02:32:43.468Z,10.60
2018-10-11T02:35:12.263Z,10.52
2018-10-11T02:37:40.755Z,10.54
2018-10-11T02:40:08.880Z,10.54
2018-10-11T02:42:36.854Z,10.52
2018-10-11T02:45:05.278Z,10.34
2018-10-11T02:47:33.259Z,10.19
2018-10-11T02:50:01.253Z,10.22
2018-10-11T02:52:29.256Z,10.13
2018-10-11T02:54:57.275Z,10.07
2018-10-11T02:57:36.470Z,10.01
2018-10-11T03:00:04.913Z,10.01
2018-10-11T03:02:33.758Z,10.02
2018-10-11T03:05:01.761Z,9.84
2018-10-11T03:07:30.122Z,9.89
2018-10-11T03:09:58.964Z,9.94
2018-10-11T03:12:26.937Z,9.96
2018-10-11T03:14:54.929Z,10.03
2018-10-11T03:17:22.954Z,9.89
2018-10-11T03:19:50.943Z,9.88
2018-10-11T03:22:19.926Z,9.87
2018-10-11T03:24:47.875Z,9.83
2018-10-11T03:27:16.296Z,9.74
2018-10-11T03:29:44.255Z,9.67
2018-10-11T03:32:12.627Z,9.59
2018-10-11T03:34:40.556Z,9.60
2018-10-11T03:37:08.581Z,9.55
2018-10-11T03:39:36.537Z,9.50
2018-10-11T03:42:04.525Z,9.46
2018-10-11T03:44:32.549Z,9.40
2018-10-11T03:47:00.743Z,9.43
2018-10-11T03:49:28.699Z,9.53
2018-10-11T03:51:56.995Z,9.50
2018-10-11T03:54:25.214Z,9.52
2018-10-11T03:56:53.218Z,9.48
2018-10-11T03:59:21.229Z,9.41
2018-10-11T04:01:49.304Z,9.33
2018-10-11T04:04:17.311Z,9.30
2018-10-11T04:06:45.357Z,9.15
2018-10-11T04:09:13.341Z,9.18
2018-10-11T04:11:41.451Z,9.07
2018-10-11T04:14:09.435Z,9.05
2018-10-11T04:16:37.756Z,9.14
2018-10-11T04:19:06.159Z,9.19
2018-10-11T04:21:34.296Z,9.26
2018-10-11T04:24:02.384Z,9.22
2018-10-11T04:26:30.573Z,9.17
2018-10-11T04:28:58.539Z,9.09
2018-10-11T04:31:26.737Z,8.85
2018-10-11T04:33:54.970Z,8.89
2018-10-11T04:36:23.337Z,8.91
2018-10-11T04:38:51.548Z,8.98
2018-10-11T04:41:19.998Z,8.87
2018-10-11T04:43:48.205Z,8.91
2018-10-11T04:46:16.575Z,8.95
2018-10-11T04:48:44.925Z,8.84
2018-10-11T04:51:13.279Z,8.72
2018-10-11T04:53:41.729Z,8.75
2018-10-11T04:56:10.215Z,8.79
2018-10-11T04:58:38.596Z,8.80
2018-10-11T05:01:07.195Z,8.71
2018-10-11T05:03:35.655Z,8.62
2018-10-11T05:06:04.406Z,8.62
2018-10-11T05:08:32.816Z,8.65
2018-10-11T05:11:01.257Z,8.81
2018-10-11T05:13:36.355Z,8.82
2018-10-11T05:16:04.914Z,8.78
2018-10-11T05:18:34.331Z,8.66
2018-10-11T05:21:02.653Z,8.71
2018-10-11T05:23:31.136Z,8.72
2018-10-11T05:25:59.640Z,8.79
2018-10-11T05:28:28.054Z,8.77
2018-10-11T05:30:56.515Z,8.80
2018-10-11T05:33:25.283Z,8.72
2018-10-11T05:35:53.613Z,8.63
2018-10-11T05:38:22.133Z,8.73
2018-10-11T05:40:50.514Z,8.83
2018-10-11T05:43:19.114Z,8.74
2018-10-11T05:45:55.000Z,8.66
2018-10-11T05:48:24.323Z,8.58
2018-10-11T05:50:52.918Z,8.62
2018-10-11T05:53:21.480Z,8.66
2018-10-11T05:55:50.403Z,8.68
2018-10-11T05:58:19.673Z,8.83
2018-10-11T06:00:48.013Z,9.18
2018-10-11T06:03:16.532Z,9.64
2018-10-11T06:05:45.077Z,10.20
2018-10-11T06:08:13.613Z,10.61
2018-10-11T06:10:43.392Z,11.12
2018-10-11T06:13:12.096Z,11.58
2018-10-11T06:15:41.054Z,12.01
2018-10-11T06:18:10.685Z,12.92
2018-10-11T06:20:39.180Z,13.17
2018-10-11T06:23:07.821Z,13.89
2018-10-11T06:25:36.354Z,14.13
2018-10-11T06:28:05.020Z,14.57
2018-10-11T06:30:34.525Z,14.98
2018-10-11T06:33:03.173Z,15.27
2018-10-11T06:35:31.993Z,15.57
2018-10-11T06:38:01.311Z,16.54
2018-10-11T06:40:29.881Z,16.05
2018-10-11T06:42:58.734Z,16.24
2018-10-11T06:45:27.322Z,16.45
2018-10-11T06:47:59.208Z,16.74
2018-10-11T06:50:27.775Z,17.65
2018-10-11T06:52:56.629Z,17.77
2018-10-11T06:55:25.028Z,18.24
2018-10-11T06:57:53.469Z,18.33
2018-10-11T07:00:21.848Z,18.29
2018-10-11T07:02:50.385Z,18.37
2018-10-11T07:05:18.812Z,18.93
2018-10-11T07:07:47.328Z,19.57
2018-10-11T07:10:15.719Z,20.65
2018-10-11T07:12:44.439Z,20.22
2018-10-11T07:15:12.900Z,20.77
2018-10-11T07:17:41.350Z,20.96
2018-10-11T07:20:09.906Z,21.92
2018-10-11T07:22:38.427Z,22.51
2018-10-11T07:25:06.960Z,22.01
2018-10-11T07:27:35.388Z,21.94
2018-10-11T07:30:04.072Z,22.70
2018-10-11T07:32:32.835Z,22.61
2018-10-11T07:35:01.464Z,22.60
2018-10-11T07:37:29.796Z,23.13
2018-10-11T07:39:58.413Z,22.69
2018-10-11T07:42:26.949Z,23.86
2018-10-11T07:44:55.500Z,24.20
2018-10-11T07:47:23.807Z,24.89
2018-10-11T07:49:52.280Z,26.39
2018-10-11T07:52:20.932Z,24.62
2018-10-11T07:54:50.148Z,26.02
2018-10-11T07:57:18.594Z,25.33
2018-10-11T07:59:47.059Z,25.86
2018-10-11T08:02:15.441Z,26.00
2018-10-11T08:04:43.960Z,26.75
2018-10-11T08:07:12.345Z,24.96
2018-10-11T08:09:40.760Z,23.75
2018-10-11T08:12:09.398Z,23.39
2018-10-11T08:14:37.927Z,22.80
2018-10-11T08:17:06.927Z,20.78
2018-10-11T08:19:35.800Z,20.71
2018-10-11T08:22:03.987Z,20.33
2018-10-11T08:24:32.568Z,20.06
2018-10-11T08:27:01.031Z,19.99
2018-10-11T08:29:29.506Z,19.64
2018-10-11T08:31:57.859Z,19.34
2018-10-11T08:34:26.261Z,19.13
2018-10-11T08:36:54.644Z,18.93
2018-10-11T08:39:23.098Z,18.91
2018-10-11T08:41:51.899Z,18.73
2018-10-11T08:44:20.457Z,18.59
2018-10-11T08:46:48.859Z,18.64
2018-10-11T08:49:17.344Z,18.48
2018-10-11T08:51:45.802Z,18.49
2018-10-11T08:54:19.787Z,18.32
2018-10-11T08:56:48.321Z,18.22
2018-10-11T08:59:16.937Z,18.28
2018-10-11T09:01:45.380Z,18.28
2018-10-11T09:04:14.020Z,18.44
2018-10-11T09:06:42.419Z,18.27
2018-10-11T09:09:11.082Z,18.41
2018-10-11T09:11:39.471Z,18.45
2018-10-11T09:14:08.000Z,18.62
2018-10-11T09:16:36.622Z,18.79
2018-10-11T09:19:05.321Z,18.84
2018-10-11T09:21:33.698Z,19.08
2018-10-11T09:24:02.109Z,19.13
2018-10-11T09:26:30.680Z,19.08
2018-10-11T09:28:59.062Z,19.06
2018-10-11T09:31:27.563Z,19.12
2018-10-11T09:33:55.979Z,19.09
2018-10-11T09:36:24.469Z,19.22
2018-10-11T09:38:53.138Z,19.34
2018-10-11T09:41:21.579Z,19.53
2018-10-11T09:43:50.019Z,19.68
2018-10-11T09:46:18.458Z,19.82
2018-10-11T09:48:47.288Z,19.81
2018-10-11T09:51:15.928Z,19.79
2018-10-11T09:53:44.340Z,19.92
2018-10-11T09:56:12.788Z,19.97
2018-10-11T09:58:41.220Z,19.80
2018-10-11T10:01:15.006Z,19.89
2018-10-11T10:03:43.347Z,19.76
2018-10-11T10:06:11.809Z,19.86
2018-10-11T10:08:40.151Z,19.84
2018-10-11T10:11:08.695Z,19.99
2018-10-11T10:13:37.209Z,19.92
2018-10-11T10:16:05.747Z,20.18
2018-10-11T10:18:34.276Z,20.27
2018-10-11T10:21:03.111Z,20.28
2018-10-11T10:23:31.507Z,20.12
2018-10-11T10:26:00.166Z,20.26
2018-10-11T10:28:28.612Z,20.37
2018-10-11T10:30:57.149Z,20.43
2018-10-11T10:33:25.971Z,20.37
2018-10-11T10:35:54.516Z,20.43
2018-10-11T10:38:23.471Z,20.84
2018-10-11T10:40:52.249Z,20.91
2018-10-11T10:43:20.890Z,20.74
2018-10-11T10:45:49.639Z,20.72
2018-10-11T10:48:18.112Z,20.80
2018-10-11T10:50:46.532Z,20.89
2018-10-11T10:53:14.966Z,21.21
2018-10-11T10:55:43.444Z,21.80
2018-10-11T10:58:11.986Z,22.05
2018-10-11T11:00:40.366Z,22.12
2018-10-11T11:03:08.864Z,22.74
2018-10-11T11:05:37.428Z,24.05
2018-10-11T11:08:06.146Z,24.76
2018-10-11T11:10:34.618Z,24.89
2018-10-11T11:13:03.162Z,25.67
2018-10-11T11:15:31.706Z,25.34
2018-10-11T11:18:00.392Z,24.47
2018-10-11T11:20:28.945Z,23.95
2018-10-11T11:22:57.504Z,23.30
2018-10-11T11:25:25.971Z,23.10
2018-10-11T11:27:54.502Z,23.06
2018-10-11T11:30:23.085Z,23.17
2018-10-11T11:32:51.514Z,23.00
2018-10-11T11:35:20.153Z,22.54
2018-10-11T11:37:48.614Z,22.48
2018-10-11T11:40:17.077Z,22.41
2018-10-11T11:42:45.558Z,22.33
2018-10-11T11:45:14.001Z,22.15
2018-10-11T11:47:42.450Z,22.20
2018-10-11T11:50:10.962Z,22.19
2018-10-11T11:52:39.418Z,22.21
2018-10-11T11:55:07.882Z,22.26
2018-10-11T11:57:36.503Z,22.30
2018-10-11T12:00:05.346Z,22.33
2018-10-11T12:02:34.132Z,22.29
2018-10-11T12:05:02.541Z,22.16
2018-10-11T12:07:31.114Z,22.03
2018-10-11T12:09:59.515Z,21.97
2018-10-11T12:13:15.693Z,22.22
2018-10-11T12:15:44.972Z,22.42
2018-10-11T12:18:13.572Z,22.49
2018-10-11T12:20:42.574Z,22.47
2018-10-11T12:23:12.022Z,22.51
2018-10-11T12:25:40.513Z,22.55
2018-10-11T12:28:08.989Z,22.54
2018-10-11T12:30:37.460Z,22.64
2018-10-11T12:33:06.102Z,22.61
2018-10-11T12:35:34.592Z,22.49
2018-10-11T12:38:03.073Z,22.64
2018-10-11T12:40:31.513Z,22.56
2018-10-11T12:42:59.952Z,22.63
2018-10-11T12:45:28.456Z,22.71
2018-10-11T12:47:56.995Z,22.54
2018-10-11T12:50:25.562Z,22.24
2018-10-11T12:52:54.068Z,22.56
2018-10-11T12:55:22.636Z,22.58
2018-10-11T12:57:51.060Z,22.69
2018-10-11T13:00:19.698Z,22.65
2018-10-11T13:02:48.208Z,22.57
2018-10-11T13:05:16.792Z,22.64
2018-10-11T13:07:45.401Z,22.58
2018-10-11T13:10:13.931Z,22.43
2018-10-11T13:12:42.414Z,22.43
2018-10-11T13:15:11.075Z,22.64
2018-10-11T13:17:42.814Z,22.50
2018-10-11T13:20:08.894Z,22.53
2018-10-11T13:22:37.746Z,22.48
2018-10-11T13:25:06.445Z,22.26
2018-10-11T13:27:34.954Z,22.19
2018-10-11T13:30:03.496Z,22.17
2018-10-11T13:32:32.036Z,22.31
2018-10-11T13:35:00.560Z,22.10
2018-10-11T13:37:29.066Z,21.91
2018-10-11T13:39:58.092Z,22.00
2018-10-11T13:42:26.112Z,22.04
2018-10-11T13:44:54.717Z,21.90
2018-10-11T13:47:23.390Z,21.82
2018-10-11T13:49:52.055Z,21.82
2018-10-11T13:52:22.514Z,21.72
2018-10-11T13:54:49.072Z,21.74
2018-10-11T13:57:17.594Z,21.72
2018-10-11T13:59:45.994Z,21.73
2018-10-11T14:02:14.570Z,21.76
2018-10-11T14:04:43.367Z,21.79
2018-10-11T14:07:11.940Z,21.75
2018-10-11T14:09:40.479Z,21.80
2018-10-11T14:12:09.081Z,21.75
2018-10-11T14:14:44.032Z,21.79
2018-10-11T14:17:12.596Z,21.84
2018-10-11T14:19:41.428Z,21.76
2018-10-11T14:22:10.034Z,21.73
2018-10-11T14:24:38.439Z,21.72
2018-10-11T14:27:06.912Z,21.71
2018-10-11T14:29:35.412Z,21.88
2018-10-11T14:32:03.956Z,21.82
2018-10-11T14:34:32.493Z,21.78
2018-10-11T14:37:01.522Z,21.83
2018-10-11T14:39:29.931Z,21.72
2018-10-11T14:41:58.513Z,21.74
2018-10-11T14:44:27.236Z,21.80
2018-10-11T14:46:58.841Z,21.73
2018-10-11T14:49:27.333Z,21.72
2018-10-11T14:51:55.901Z,21.68
2018-10-11T14:54:24.528Z,21.68
2018-10-11T14:56:53.153Z,21.66
2018-10-11T14:59:21.762Z,21.65
2018-10-11T15:01:50.397Z,21.66
2018-10-11T15:04:18.816Z,21.59
2018-10-11T15:06:47.493Z,21.70
2018-10-11T15:09:16.071Z,21.64
2018-10-11T15:11:44.602Z,21.57
2018-10-11T15:14:13.039Z,21.38
2018-10-11T15:16:41.695Z,21.39
2018-10-11T15:19:10.298Z,21.44
2018-10-11T15:21:39.165Z,21.33
2018-10-11T15:24:08.032Z,21.22
2018-10-11T15:26:36.494Z,21.21
2018-10-11T15:29:05.557Z,21.16
2018-10-11T15:31:34.093Z,21.13
2018-10-11T15:34:02.772Z,21.14
2018-10-11T15:36:31.375Z,21.06
2018-10-11T15:39:00.085Z,20.94
2018-10-11T15:41:28.698Z,20.88
2018-10-11T15:43:57.449Z,20.81
2018-10-11T15:46:26.102Z,20.80
2018-10-11T15:48:54.807Z,20.82
2018-10-11T15:51:23.490Z,20.72
2018-10-11T15:53:52.062Z,20.65
2018-10-11T15:56:20.749Z,20.71
2018-10-11T15:58:49.500Z,20.64
2018-10-11T16:01:17.983Z,20.49
2018-10-11T16:03:46.571Z,20.39
2018-10-11T16:06:15.086Z,20.35
2018-10-11T16:08:43.643Z,20.22
2018-10-11T16:11:12.141Z,20.14
2018-10-11T16:13:40.729Z,20.02
2018-10-11T16:16:09.320Z,19.87
2018-10-11T16:18:38.302Z,19.81
2018-10-11T16:21:13.340Z,19.72
2018-10-11T16:23:41.821Z,19.72
2018-10-11T16:26:10.221Z,19.61
2018-10-11T16:28:38.741Z,19.60
2018-10-11T16:31:07.303Z,19.47
2018-10-11T16:33:35.804Z,19.42
2018-10-11T16:36:04.303Z,19.27
2018-10-11T16:38:32.965Z,19.23
2018-10-11T16:41:01.482Z,19.22
2018-10-11T16:43:32.526Z,19.19
2018-10-11T16:46:01.165Z,19.15
2018-10-11T16:48:29.798Z,19.16
2018-10-11T16:50:58.266Z,19.09
2018-10-11T16:53:26.824Z,19.04
2018-10-11T16:55:55.364Z,18.95
2018-10-11T16:58:24.077Z,18.98
2018-10-11T17:00:52.623Z,18.92
2018-10-11T17:03:21.471Z,18.94
2018-10-11T17:05:50.066Z,18.89
2018-10-11T17:08:19.243Z,18.84
2018-10-11T17:10:48.009Z,18.83
2018-10-11T17:13:16.443Z,18.82
2018-10-11T17:15:45.106Z,18.83
2018-10-11T17:18:13.777Z,18.87
2018-10-11T17:20:42.321Z,18.91
2018-10-11T17:23:10.804Z,18.97
2018-10-11T17:25:39.448Z,19.01
2018-10-11T17:28:08.004Z,19.08
2018-10-11T17:30:36.485Z,19.04
2018-10-11T17:33:04.923Z,19.04
2018-10-11T17:35:33.530Z,19.09
2018-10-11T17:38:01.982Z,19.07
2018-10-11T17:40:30.483Z,19.07
2018-10-11T17:42:59.129Z,19.08
2018-10-11T17:45:28.461Z,18.98
2018-10-11T17:47:57.010Z,18.94
2018-10-11T17:50:25.815Z,18.91
2018-10-11T17:52:54.383Z,18.87
2018-10-11T17:55:22.981Z,18.83
2018-10-11T17:57:51.604Z,18.80
2018-10-11T18:00:20.227Z,18.74
2018-10-11T18:02:48.826Z,18.75
2018-10-11T18:05:17.565Z,18.75
2018-10-11T18:07:46.086Z,18.68
2018-10-11T18:10:14.875Z,18.60
2018-10-11T18:12:43.642Z,18.57
2018-10-11T18:15:12.725Z,18.41
2018-10-11T18:17:41.385Z,18.21
2018-10-11T18:20:10.425Z,18.10
2018-10-11T18:22:38.991Z,18.16
2018-10-11T18:25:09.046Z,18.08
2018-10-11T18:27:37.883Z,18.00
2018-10-11T18:30:08.530Z,17.90
2018-10-11T18:32:37.102Z,17.96
2018-10-11T18:35:06.453Z,17.99
2018-10-11T18:37:38.157Z,17.89
2018-10-11T18:40:06.887Z,17.82
2018-10-11T18:42:35.584Z,17.80
2018-10-11T18:45:04.427Z,17.75
2018-10-11T18:47:33.314Z,17.92
2018-10-11T18:50:02.189Z,17.85
2018-10-11T18:52:30.804Z,18.26
2018-10-11T18:54:59.646Z,18.77
2018-10-11T18:57:28.565Z,19.20
2018-10-11T18:59:57.298Z,19.45
2018-10-11T19:02:26.211Z,19.65
2018-10-11T19:04:55.064Z,19.78
2018-10-11T19:07:24.064Z,19.83
2018-10-11T19:09:52.649Z,19.86
2018-10-11T19:12:21.490Z,19.90
2018-10-11T19:14:50.339Z,19.95
2018-10-11T19:17:19.262Z,19.95
2018-10-11T19:19:48.103Z,19.99
2018-10-11T19:22:17.022Z,20.02
2018-10-11T19:24:45.882Z,20.02
2018-10-11T19:27:15.234Z,20.03
2018-10-11T19:29:43.813Z,19.98
2018-10-11T19:32:12.721Z,20.02
2018-10-11T19:34:41.380Z,19.99
2018-10-11T19:37:09.986Z,19.97
2018-10-11T19:39:39.042Z,19.90
2018-10-11T19:42:07.972Z,19.94
2018-10-11T19:44:36.499Z,19.96
2018-10-11T19:47:05.302Z,19.99
2018-10-11T19:49:33.912Z,19.91
2018-10-11T19:52:02.703Z,19.90
2018-10-11T19:54:31.175Z,19.92
2018-10-11T19:56:59.833Z,19.91
2018-10-11T19:59:28.453Z,19.93
2018-10-11T20:01:56.873Z,19.86
2018-10-11T20:04:25.512Z,19.90
2018-10-11T20:06:54.150Z,19.97
2018-10-11T20:09:22.666Z,19.93
2018-10-11T20:11:51.276Z,19.88
2018-10-11T20:14:19.917Z,19.87
2018-10-11T20:16:48.855Z,19.83
2018-10-11T20:19:17.382Z,19.76
2018-10-11T20:21:45.975Z,19.72
2018-10-11T20:24:14.741Z,19.66
2018-10-11T20:26:43.455Z,19.65
2018-10-11T20:29:12.097Z,19.64
2018-10-11T20:31:40.482Z,19.55
2018-10-11T20:34:08.982Z,19.49
2018-10-11T20:36:37.527Z,19.49
2018-10-11T20:39:07.835Z,19.43
2018-10-11T20:41:36.236Z,19.37
2018-10-11T20:44:04.715Z,19.37
2018-10-11T20:46:33.535Z,19.34
2018-10-11T20:49:01.674Z,19.32
2018-10-11T20:51:29.903Z,19.29
2018-10-11T20:53:58.322Z,19.21
2018-10-11T20:56:26.532Z,19.22
2018-10-11T20:58:54.639Z,19.17
2018-10-11T21:01:22.808Z,19.19
2018-10-11T21:03:51.132Z,19.16
2018-10-11T21:06:19.175Z,19.15
2018-10-11T21:08:47.259Z,19.14
2018-10-11T21:11:15.299Z,19.06
2018-10-11T21:13:43.572Z,19.02
2018-10-11T21:16:11.700Z,19.01
2018-10-11T21:18:39.792Z,19.01
2018-10-11T21:21:08.048Z,18.93
2018-10-11T21:23:36.407Z,18.91
2018-10-11T21:26:04.725Z,18.90
2018-10-11T21:28:33.014Z,18.88
2018-10-11T21:31:01.037Z,18.88
2018-10-11T21:33:29.234Z,18.85
2018-10-11T21:35:57.267Z,18.81
2018-10-11T21:38:25.245Z,18.81
2018-10-11T21:40:53.267Z,18.82
2018-10-11T21:43:21.264Z,18.76
2018-10-11T21:45:49.367Z,18.77
2018-10-11T21:48:17.459Z,18.74
2018-10-11T21:50:45.476Z,18.77
2018-10-11T21:53:13.484Z,18.77
2018-10-11T21:55:41.488Z,18.79
2018-10-11T21:58:09.499Z,18.77
2018-10-11T22:00:43.223Z,18.73
2018-10-11T22:03:11.251Z,18.74
2018-10-11T22:05:39.215Z,18.81
2018-10-11T22:08:07.290Z,18.76
2018-10-11T22:10:35.317Z,18.71
2018-10-11T22:13:04.273Z,18.72
2018-10-11T22:15:32.743Z,18.68
2018-10-11T22:18:00.842Z,18.65
2018-10-11T22:20:28.813Z,18.68
2018-10-11T22:22:56.775Z,18.68
2018-10-11T22:25:24.806Z,18.67
2018-10-11T22:27:53.809Z,18.61
2018-10-11T22:30:21.750Z,18.62
2018-10-11T22:32:49.736Z,18.67
2018-10-11T22:35:17.676Z,18.67
2018-10-11T22:37:47.392Z,18.64
2018-10-11T22:40:29.554Z,18.67
2018-10-11T22:42:59.604Z,18.63
2018-10-11T22:45:27.598Z,18.66
2018-10-11T22:47:56.401Z,18.60
2018-10-11T22:50:25.794Z,18.67
2018-10-11T22:52:54.322Z,18.65
2018-10-11T22:55:22.623Z,18.64
2018-10-11T22:57:50.624Z,18.65
2018-10-11T23:00:18.874Z,18.68
2018-10-11T23:02:46.824Z,18.67
2018-10-11T23:05:14.807Z,18.59
2018-10-11T23:07:42.707Z,18.66
2018-10-11T23:10:11.008Z,18.57
2018-10-11T23:12:39.020Z,18.56
2018-10-11T23:15:07.161Z,18.48
2018-10-11T23:17:35.146Z,18.47
2018-10-11T23:20:03.141Z,18.40
2018-10-11T23:22:31.090Z,18.24
2018-10-11T23:24:59.160Z,17.79
2018-10-11T23:27:27.124Z,17.22
2018-10-11T23:29:55.314Z,16.91
2018-10-11T23:32:23.247Z,16.58
2018-10-11T23:34:51.257Z,16.40
2018-10-11T23:37:19.188Z,16.27
2018-10-11T23:39:47.169Z,16.18
2018-10-11T23:42:15.159Z,16.12
2018-10-11T23:44:43.411Z,16.12
2018-10-11T23:47:11.485Z,16.01
2018-10-11T23:49:39.525Z,15.91
2018-10-11T23:52:07.515Z,15.83
2018-10-11T23:54:35.825Z,15.68
2018-10-11T23:57:03.730Z,15.52
2018-10-11T23:59:31.713Z,15.45
